Time;durP1;ratioP1;P1;durP2;ratioP2;P2;SDS_P1;SDS_P2;PMS_P1;PMS_P2;Temp;Humidity;BMP_temperature;BMP_pressure;BME280_temperature;BME280_humidity;BME280_pressure;Samples;Min_cycle;Max_cycle;Signal;HPM_P1;HPM_P2
2023/10/23 00:02:11;;;;;;;62.33;3.23;;;;;;;22.81;53.08;99177.72;7306421;19;129106;-36
2023/10/23 00:04:36;;;;;;;16.83;1.30;;;;;;;22.78;53.36;99187.69;7310065;19;129035;-36
2023/10/23 00:07:02;;;;;;;40.97;2.20;;;;;;;22.74;53.78;99189.00;7306695;19;129402;-35
2023/10/23 00:09:27;;;;;;;60.97;3.28;;;;;;;22.71;53.66;99186.69;7307273;19;128914;-35
2023/10/23 00:11:52;;;;;;;70.83;3.77;;;;;;;22.74;54.45;99186.38;7312886;19;131253;-36
2023/10/23 00:14:18;;;;;;;27.67;1.80;;;;;;;22.73;54.04;99182.09;7315966;19;128939;-35
2023/10/23 00:16:43;;;;;;;46.70;2.85;;;;;;;22.74;54.47;99186.38;7315123;19;129431;-36
2023/10/23 00:19:08;;;;;;;95.97;5.17;;;;;;;22.73;54.87;99180.31;7313491;19;129096;-36
2023/10/23 00:21:34;;;;;;;21.67;1.33;;;;;;;22.70;54.34;99179.78;7314821;19;130307;-35
2023/10/23 00:23:59;;;;;;;32.15;1.85;;;;;;;22.70;54.54;99174.53;7313910;19;130095;-35
2023/10/23 00:26:24;;;;;;;41.25;2.45;;;;;;;22.70;55.16;99179.78;7313635;19;128833;-34
2023/10/23 00:28:50;;;;;;;79.20;4.00;;;;;;;22.68;54.53;99185.19;7314697;19;130094;-35
2023/10/23 00:31:15;;;;;;;75.37;4.17;;;;;;;22.68;54.91;99181.75;7313232;19;129552;-35
2023/10/23 00:33:41;;;;;;;31.37;1.70;;;;;;;22.57;53.09;99179.41;7315722;19;129456;-35
2023/10/23 00:36:07;;;;;;;45.63;2.50;;;;;;;22.68;51.94;99186.97;7315335;19;129258;-36
2023/10/23 00:38:32;;;;;;;69.23;3.67;;;;;;;22.76;51.03;99185.22;7314029;19;129193;-34
2023/10/23 00:40:57;;;;;;;50.47;2.87;;;;;;;22.83;51.41;99190.66;7312613;19;129663;-36
2023/10/23 00:43:24;;;;;;;32.17;1.83;;;;;;;22.89;51.50;99192.66;7315442;19;129071;-35
2023/10/23 00:45:52;;;;;;;;;;;;;;;22.87;52.79;99190.19;7315300;19;129077;-34
2023/10/23 00:48:19;;;;;;;;;;;;;;;22.84;53.44;99187.06;7316765;19;130095;-36
2023/10/23 00:50:45;;;;;;;69.75;3.85;;;;;;;22.77;53.50;99186.88;7312548;19;130338;-34
2023/10/23 00:53:11;;;;;;;28.00;1.53;;;;;;;22.75;53.80;99180.16;7314343;19;129022;-35
2023/10/23 00:55:36;;;;;;;67.97;3.47;;;;;;;22.71;54.19;99184.88;7315072;19;131135;-36
2023/10/23 00:58:01;;;;;;;44.43;2.43;;;;;;;22.71;53.91;99184.06;7315690;19;130102;-37
2023/10/23 01:00:28;;;;;;;47.90;2.77;;;;;;;22.72;54.30;99188.31;7313553;19;129820;-36
2023/10/23 01:02:53;;;;;;;48.80;2.85;;;;;;;22.69;54.70;99178.16;7315884;19;129844;-34
2023/10/23 01:05:19;;;;;;;54.83;2.92;;;;;;;22.55;54.56;99163.00;7315713;19;129229;-35
2023/10/23 01:07:44;;;;;;;46.33;2.37;;;;;;;22.68;54.69;99186.97;7311946;19;129915;-35
2023/10/23 01:10:09;;;;;;;46.53;2.60;;;;;;;22.60;54.59;99171.22;7312666;19;129407;-35
2023/10/23 01:12:35;;;;;;;48.23;2.67;;;;;;;22.70;55.13;99187.66;7314313;19;129588;-35
2023/10/23 01:15:00;;;;;;;87.37;4.50;;;;;;;22.70;54.49;99190.28;7316351;19;129624;-36
2023/10/23 01:17:26;;;;;;;32.67;1.93;;;;;;;22.68;55.10;99197.47;7315828;19;129454;-37
2023/10/23 01:19:51;;;;;;;49.90;2.67;;;;;;;22.62;53.24;99190.22;7314459;19;129649;-34
2023/10/23 01:22:17;;;;;;;31.70;1.93;;;;;;;22.62;51.99;99192.84;7310758;19;129327;-35
2023/10/23 01:24:44;;;;;;;76.60;3.93;;;;;;;22.73;51.72;99198.66;7313229;19;130879;-37
2023/10/23 01:27:10;;;;;;;30.88;1.77;;;;;;;22.74;51.43;99195.03;7314036;19;130089;-35
2023/10/23 01:29:35;;;;;;;13.33;1.03;;;;;;;22.84;51.38;99195.75;7314284;19;130360;-35
2023/10/23 01:32:01;;;;;;;48.03;2.57;;;;;;;22.92;52.11;99200.22;7311528;19;129938;-35
2023/10/23 01:34:26;;;;;;;75.67;3.73;;;;;;;22.85;52.60;99204.44;7314542;19;130767;-34
2023/10/23 01:36:51;;;;;;;42.80;2.30;;;;;;;22.80;53.15;99201.47;7314442;19;131194;-35
2023/10/23 01:39:17;;;;;;;42.63;2.30;;;;;;;22.77;53.42;99207.03;7312282;19;129658;-36
2023/10/23 01:41:42;;;;;;;49.97;2.63;;;;;;;22.74;54.02;99202.09;7312259;19;129576;-36
2023/10/23 01:44:08;;;;;;;56.50;3.07;;;;;;;22.72;53.89;99210.13;7313761;19;128971;-36
2023/10/23 01:46:34;;;;;;;40.73;2.13;;;;;;;22.71;54.24;99205.84;7310808;19;130461;-35
2023/10/23 01:48:59;;;;;;;76.47;4.17;;;;;;;22.70;54.49;99206.81;7311053;19;131018;-35
2023/10/23 01:51:25;;;;;;;43.77;2.30;;;;;;;22.53;54.58;99183.28;7311165;19;129467;-36
2023/10/23 01:53:50;;;;;;;83.43;4.45;;;;;;;22.71;54.12;99203.22;7311394;19;128988;-36
2023/10/23 01:56:15;;;;;;;70.37;3.90;;;;;;;22.69;54.75;99188.66;7312179;19;129489;-35
2023/10/23 01:58:41;;;;;;;37.13;2.00;;;;;;;22.66;54.78;99199.44;7311720;19;129249;-34
2023/10/23 02:01:06;;;;;;;79.65;4.38;;;;;;;22.70;54.75;99195.50;7309738;19;128780;-36
2023/10/23 02:03:31;;;;;;;48.90;2.63;;;;;;;22.68;54.60;99203.53;7307657;19;130458;-36
2023/10/23 02:05:57;;;;;;;44.30;2.53;;;;;;;22.69;55.34;99202.53;7310212;19;130037;-34
2023/10/23 02:08:23;;;;;;;59.40;3.17;;;;;;;22.56;53.11;99198.72;7311825;19;129210;-35
2023/10/23 02:10:49;;;;;;;;;;;;;;;22.52;51.95;99176.38;7311567;19;129339;-34
2023/10/23 02:13:14;;;;;;;21.63;1.27;;;;;;;22.75;51.25;99193.25;7313740;19;128764;-35
2023/10/23 02:15:40;;;;;;;34.93;2.00;;;;;;;22.80;51.47;99197.06;7310689;19;129088;-36
2023/10/23 02:18:07;;;;;;;40.53;2.30;;;;;;;22.88;51.14;99201.50;7311837;19;129284;-34
2023/10/23 02:20:32;;;;;;;77.30;3.80;;;;;;;22.89;52.26;99201.34;7311804;19;128858;-36
2023/10/23 02:22:58;;;;;;;25.53;1.57;;;;;;;22.78;52.78;99201.63;7310804;19;129386;-36
2023/10/23 02:25:24;;;;;;;35.17;1.83;;;;;;;22.77;53.42;99205.22;7312408;19;130096;-35
2023/10/23 02:27:49;;;;;;;43.27;2.57;;;;;;;22.72;53.21;99206.66;7309671;19;129450;-34
2023/10/23 02:30:14;;;;;;;69.32;3.50;;;;;;;22.74;54.13;99212.59;7312444;19;129178;-36
2023/10/23 02:32:40;;;;;;;40.00;2.43;;;;;;;22.71;54.48;99213.69;7310512;19;128904;-35
2023/10/23 02:35:05;;;;;;;27.70;1.70;;;;;;;22.70;54.33;99221.72;7312849;19;130458;-36
2023/10/23 02:37:31;;;;;;;49.38;2.42;;;;;;;22.71;54.71;99220.75;7309351;19;129158;-35
2023/10/23 02:39:57;;;;;;;80.40;4.30;;;;;;;22.65;54.36;99221.38;7311230;19;132693;-36
2023/10/23 02:42:22;;;;;;;34.17;1.90;;;;;;;22.68;55.11;99224.50;7308357;19;129684;-36
2023/10/23 02:44:47;;;;;;;33.05;1.85;;;;;;;22.67;54.66;99224.66;7312000;19;130160;-35
2023/10/23 02:47:13;;;;;;;67.07;3.55;;;;;;;22.63;54.98;99224.13;7308229;19;129580;-35
2023/10/23 02:49:38;;;;;;;47.33;2.73;;;;;;;22.53;55.38;99210.31;7311906;19;128966;-37
2023/10/23 02:52:04;;;;;;;58.10;3.40;;;;;;;22.63;55.07;99225.94;7307049;19;129197;-35
2023/10/23 02:54:29;;;;;;;27.13;1.63;;;;;;;22.48;53.13;99222.19;7312179;19;130125;-35
2023/10/23 02:56:55;;;;;;;95.00;4.65;;;;;;;22.60;52.36;99241.97;7311040;19;130273;-34
2023/10/23 02:59:21;;;;;;;32.58;1.67;;;;;;;22.66;51.89;99236.13;7306470;19;128976;-37
2023/10/23 03:01:46;;;;;;;44.78;2.65;;;;;;;22.77;51.19;99243.72;7309160;19;128958;-36
2023/10/23 03:04:12;;;;;;;30.30;1.67;;;;;;;22.84;51.22;99242.13;7311032;19;128997;-35
2023/10/23 03:06:37;;;;;;;135.87;6.83;;;;;;;22.85;51.68;99251.63;7306049;19;129413;-35
2023/10/23 03:09:03;;;;;;;97.73;5.00;;;;;;;22.81;52.55;99245.03;7310292;19;128981;-35
2023/10/23 03:11:28;;;;;;;23.87;1.87;;;;;;;22.75;52.87;99246.50;7309579;19;129571;-34
2023/10/23 03:13:54;;;;;;;46.30;2.47;;;;;;;22.73;53.24;99243.19;7311045;19;129611;-35
2023/10/23 03:16:19;;;;;;;78.17;3.80;;;;;;;22.58;53.84;99217.72;7308794;19;130519;-35
2023/10/23 03:18:44;;;;;;;45.08;2.33;;;;;;;22.68;54.33;99242.00;7311056;19;131142;-35
2023/10/23 03:21:10;;;;;;;25.60;1.53;;;;;;;22.69;54.14;99251.53;7308938;19;131028;-35
2023/10/23 03:23:35;;;;;;;37.63;2.10;;;;;;;22.56;54.46;99236.22;7310036;19;129053;-36
2023/10/23 03:26:01;;;;;;;69.25;3.67;;;;;;;22.59;54.60;99229.84;7309292;19;130329;-36
2023/10/23 03:28:27;;;;;;;36.27;2.07;;;;;;;22.67;54.64;99243.00;7312022;19;129263;-35
2023/10/23 03:30:52;;;;;;;30.85;1.77;;;;;;;22.69;54.42;99246.28;7306949;19;129407;-34
2023/10/23 03:33:17;;;;;;;61.53;3.17;;;;;;;22.69;54.78;99256.78;7310387;19;130336;-34
2023/10/23 03:35:43;;;;;;;113.17;5.97;;;;;;;22.67;54.64;99258.72;7309434;19;130424;-35
2023/10/23 03:38:09;;;;;;;27.47;1.53;;;;;;;22.63;55.33;99252.97;7310034;19;128798;-33
2023/10/23 03:40:34;;;;;;;39.27;2.20;;;;;;;22.54;52.62;99259.16;7306096;19;130094;-34
2023/10/23 03:43:00;;;;;;;77.90;3.97;;;;;;;22.68;52.46;99265.59;7310257;19;129807;-34
2023/10/23 03:45:26;;;;;;;38.53;2.03;;;;;;;22.73;51.27;99264.16;7316333;19;129323;-35
2023/10/23 03:47:51;;;;;;;28.53;1.60;;;;;;;22.81;51.28;99273.84;7315355;19;129133;-34
2023/10/23 03:50:16;;;;;;;71.57;3.90;;;;;;;22.90;51.19;99270.31;7315042;19;129353;-33
2023/10/23 03:52:42;;;;;;;62.60;3.13;;;;;;;22.82;52.03;99267.66;7315023;19;129003;-36
2023/10/23 03:55:07;;;;;;;46.57;2.63;;;;;;;22.79;52.67;99262.72;7314612;19;130424;-35
2023/10/23 03:57:33;;;;;;;29.77;1.67;;;;;;;22.74;53.20;99265.78;7314799;19;128991;-35
2023/10/23 03:59:58;;;;;;;40.80;2.43;;;;;;;22.71;53.99;99270.56;7315210;19;129182;-36
2023/10/23 04:02:24;;;;;;;69.67;3.47;;;;;;;22.70;53.67;99263.66;7312055;19;129711;-36
2023/10/23 04:04:49;;;;;;;43.63;2.60;;;;;;;22.70;54.39;99268.88;7317406;19;130416;-35
2023/10/23 04:07:14;;;;;;;43.23;2.30;;;;;;;22.69;54.16;99262.00;7313193;19;129997;-34
2023/10/23 04:09:40;;;;;;;61.67;3.20;;;;;;;22.69;54.48;99272.50;7315759;19;128974;-35
2023/10/23 04:12:05;;;;;;;94.00;4.73;;;;;;;22.68;54.11;99270.84;7312932;19;130153;-36
2023/10/23 04:14:31;;;;;;;40.33;2.23;;;;;;;22.70;54.35;99271.50;7314424;19;131370;-34
2023/10/23 04:16:56;;;;;;;39.30;2.50;;;;;;;22.67;55.02;99280.53;7314861;19;130021;-35
2023/10/23 04:19:22;;;;;;;56.93;2.83;;;;;;;22.68;55.19;99278.69;7314717;19;129043;-32
2023/10/23 04:21:47;;;;;;;58.05;3.25;;;;;;;22.69;54.58;99277.75;7314370;19;130119;-35
2023/10/23 04:24:13;;;;;;;13.65;1.02;;;;;;;22.55;54.63;99266.00;7314028;19;131040;-35
2023/10/23 04:26:38;;;;;;;38.87;2.03;;;;;;;22.40;52.74;99261.44;7313996;19;129242;-34
2023/10/23 04:29:04;;;;;;;188.50;10.57;;;;;;;22.67;52.35;99284.94;7312163;19;129532;-35
2023/10/23 04:31:30;;;;;;;42.03;2.27;;;;;;;22.71;51.29;99286.28;7314189;19;130157;-36
2023/10/23 04:33:55;;;;;;;34.97;1.83;;;;;;;22.75;51.14;99287.59;7314462;19;130861;-35
2023/10/23 04:36:20;;;;;;;48.03;2.57;;;;;;;22.87;51.94;99287.16;7314505;19;129462;-36
2023/10/23 04:38:47;;;;;;;70.63;3.47;;;;;;;22.80;52.73;99288.78;7313085;19;129372;-36
2023/10/23 04:41:12;;;;;;;67.75;3.72;;;;;;;22.77;53.18;99285.66;7313533;19;129085;-35
2023/10/23 04:43:38;;;;;;;29.27;1.67;;;;;;;22.73;53.45;99289.53;7312199;19;132559;-36
2023/10/23 04:46:03;;;;;;;33.13;2.03;;;;;;;22.72;54.10;99287.91;7314290;19;129469;-34
2023/10/23 04:48:28;;;;;;;86.73;4.50;;;;;;;22.70;53.90;99284.63;7309530;19;129490;-36
2023/10/23 04:51:02;;;;;;;26.70;1.57;;;;;;;22.70;54.19;99287.22;7313942;19;130140;-35
2023/10/23 04:53:27;;;;;;;39.95;2.15;;;;;;;22.69;54.28;99293.47;7314527;19;131155;-36
2023/10/23 04:55:54;;;;;;;42.60;2.23;;;;;;;22.66;54.22;99286.72;7309814;19;129067;-34
2023/10/23 04:58:19;;;;;;;67.70;3.47;;;;;;;22.66;54.59;99289.34;7312617;19;129136;-40
2023/10/23 05:00:45;;;;;;;27.77;1.60;;;;;;;22.68;54.35;99283.94;7313231;19;130117;-35
2023/10/23 05:03:10;;;;;;;45.77;2.63;;;;;;;22.54;54.41;99255.69;7312022;19;131056;-35
2023/10/23 05:05:36;;;;;;;57.57;3.07;;;;;;;22.66;54.56;99283.28;7313256;19;128998;-35
2023/10/23 05:08:03;;;;;;;110.88;5.35;;;;;;;22.66;54.60;99283.28;7311167;19;130512;-35
2023/10/23 05:10:29;;;;;;;43.05;2.35;;;;;;;22.54;53.78;99276.66;7308731;19;130760;-34
2023/10/23 05:12:54;;;;;;;32.10;1.83;;;;;;;22.59;52.67;99285.69;7313542;19;129478;-35
2023/10/23 05:15:20;;;;;;;30.73;1.73;;;;;;;22.68;52.13;99283.94;7310098;19;129627;-34
2023/10/23 05:17:45;;;;;;;67.13;3.40;;;;;;;22.74;51.73;99283.34;7311583;19;129341;-34
2023/10/23 05:20:11;;;;;;;103.85;5.63;;;;;;;22.68;50.85;99266.44;7302826;19;130050;-36
2023/10/23 05:22:36;;;;;;;44.93;2.37;;;;;;;22.91;52.16;99292.91;7311668;19;130755;-35
2023/10/23 05:25:02;;;;;;;112.47;5.97;;;;;;;22.83;51.84;99293.72;7304880;19;131011;-35
2023/10/23 05:27:28;;;;;;;57.58;3.03;;;;;;;22.76;53.42;99295.31;7311578;19;129241;-36
2023/10/23 05:29:53;;;;;;;8.40;0.80;;;;;;;22.74;53.69;99299.06;7308436;19;130691;-35
2023/10/23 05:32:19;;;;;;;36.88;2.22;;;;;;;22.71;53.98;99294.13;7306965;19;129822;-35
2023/10/23 05:34:44;;;;;;;63.57;3.17;;;;;;;22.71;53.74;99297.56;7311181;19;129265;-34
2023/10/23 05:37:10;;;;;;;51.70;2.73;;;;;;;22.70;54.09;99300.34;7313102;19;129012;-36
2023/10/23 05:39:35;;;;;;;40.58;2.30;;;;;;;22.66;54.10;99309.50;7310267;19;129750;-34
2023/10/23 05:42:01;;;;;;;42.10;2.33;;;;;;;22.68;54.66;99315.38;7309356;19;129639;-36
2023/10/23 05:44:26;;;;;;;61.60;3.13;;;;;;;22.67;54.86;99316.38;7308993;19;129319;-35
2023/10/23 05:46:51;;;;;;;30.07;1.60;;;;;;;22.53;54.73;99294.16;7312486;19;129254;-35
2023/10/23 05:49:17;;;;;;;42.73;2.53;;;;;;;22.65;54.93;99320.94;7310779;19;131339;-36
2023/10/23 05:51:42;;;;;;;41.67;2.17;;;;;;;22.66;54.87;99326.03;7310401;19;130352;-35
2023/10/23 05:54:09;;;;;;;101.53;5.03;;;;;;;22.61;54.77;99327.47;7312675;19;128976;-36
2023/10/23 05:56:34;;;;;;;30.73;1.70;;;;;;;22.63;55.34;99338.59;7310837;19;130618;-35
2023/10/23 05:59:00;;;;;;;91.67;5.03;;;;;;;22.41;52.19;99325.97;7308262;19;129870;-36
2023/10/23 06:01:25;;;;;;;31.30;1.77;;;;;;;22.60;51.45;99338.91;7310491;19;131345;-35
2023/10/23 06:03:52;;;;;;;78.55;4.03;;;;;;;22.73;50.82;99334.09;7310120;19;129261;-37
2023/10/23 06:06:18;;;;;;;109.45;6.18;;;;;;;22.76;50.91;99339.03;7310462;19;129043;-35
2023/10/23 06:08:43;;;;;;;30.47;1.93;;;;;;;22.79;51.55;99341.38;7309699;19;129557;-36
2023/10/23 06:11:10;;;;;;;48.47;2.87;;;;;;;22.76;52.96;99344.25;7309430;19;130320;-34
2023/10/23 06:13:36;;;;;;;86.55;4.63;;;;;;;22.72;52.96;99350.81;7309904;19;131648;-36
2023/10/23 06:16:04;;;;;;;40.03;2.37;;;;;;;22.71;53.66;99351.78;7310615;19;130608;-35
2023/10/23 06:18:33;;;;;;;66.88;3.88;;;;;;;22.70;53.35;99345.72;7309368;19;130338;-35
2023/10/23 06:21:04;;;;;;;43.05;2.65;;;;;;;22.69;54.70;99345.88;7306832;19;131066;-36
2023/10/23 06:23:37;;;;;;;107.65;5.50;;;;;;;22.68;54.78;99360.75;7310807;19;129013;-33
2023/10/23 06:26:03;;;;;;;37.10;2.03;;;;;;;22.67;54.53;99360.91;7311387;19;129199;-36
2023/10/23 06:28:29;;;;;;;39.93;2.33;;;;;;;22.67;54.70;99360.91;7307338;19;130233;-35
2023/10/23 06:30:54;;;;;;;72.67;4.00;;;;;;;22.67;54.68;99363.53;7309616;19;131297;-35
2023/10/23 06:33:19;;;;;;;63.43;3.57;;;;;;;22.62;55.01;99365.78;7310383;19;129531;-37
2023/10/23 06:35:45;;;;;;;54.10;3.33;;;;;;;22.62;54.55;99361.38;7311543;19;129578;-34
2023/10/23 06:38:10;;;;;;;64.60;3.47;;;;;;;22.49;54.45;99349.59;7301432;19;129284;-34
2023/10/23 06:40:36;;;;;;;25.25;1.63;;;;;;;22.63;54.68;99370.88;7303941;19;130889;-34
2023/10/23 06:43:01;;;;;;;73.18;3.72;;;;;;;22.56;53.14;99361.16;7311982;19;129013;-36
2023/10/23 06:45:26;;;;;;;28.20;1.63;;;;;;;22.59;52.42;99366.09;7314394;19;129125;-34
2023/10/23 06:47:52;;;;;;;13.57;1.00;;;;;;;22.69;51.67;99364.22;7308698;19;131518;-35
2023/10/23 06:50:17;;;;;;;87.35;4.75;;;;;;;22.74;51.32;99364.59;7308014;19;129231;-34
2023/10/23 06:52:44;;;;;;;101.60;5.10;;;;;;;22.81;51.01;99373.47;7310090;19;130824;-36
2023/10/23 06:55:09;;;;;;;72.35;4.20;;;;;;;22.88;52.02;99374.50;7311435;19;128879;-34
2023/10/23 06:57:35;;;;;;;67.57;3.77;;;;;;;22.79;51.88;99378.06;7306768;19;130020;-35
2023/10/23 07:00:00;;;;;;;43.63;2.33;;;;;;;22.73;52.76;99366.38;7308574;19;129758;-36
2023/10/23 07:02:26;;;;;;;93.27;4.97;;;;;;;22.71;53.17;99375.38;7308215;19;130865;-34
2023/10/23 07:04:52;;;;;;;42.63;2.50;;;;;;;22.70;53.35;99374.53;7311693;19;129353;-35
2023/10/23 07:07:17;;;;;;;48.63;3.33;;;;;;;22.68;53.74;99378.28;7307732;19;130583;-34
2023/10/23 07:09:42;;;;;;;80.50;4.43;;;;;;;22.67;54.07;99374.03;7309391;19;130374;-35
2023/10/23 07:12:08;;;;;;;100.33;5.33;;;;;;;22.62;53.82;99371.03;7307752;19;129148;-36
2023/10/23 07:14:33;;;;;;;38.90;2.17;;;;;;;22.66;53.81;99372.38;7310768;19;129153;-35
2023/10/23 07:16:58;;;;;;;33.37;1.90;;;;;;;22.68;53.88;99371.25;7311192;19;129403;-35
2023/10/23 07:19:24;;;;;;;57.17;3.20;;;;;;;22.68;54.45;99373.03;7304863;19;130294;-36
2023/10/23 07:21:49;;;;;;;37.23;2.17;;;;;;;22.68;54.64;99380.91;7309354;19;129010;-34
2023/10/23 07:24:14;;;;;;;66.30;3.57;;;;;;;22.68;54.96;99383.53;7307286;19;129504;-36
2023/10/23 07:26:40;;;;;;;17.90;1.25;;;;;;;22.66;54.54;99375.00;7310590;19;128922;-36
2023/10/23 07:29:05;;;;;;;133.80;7.07;;;;;;;22.57;53.20;99378.53;7308528;19;129089;-35
2023/10/23 07:31:30;;;;;;;32.13;2.00;;;;;;;22.59;52.43;99387.06;7310920;19;129238;-34
2023/10/23 07:33:57;;;;;;;36.27;2.47;;;;;;;22.70;51.42;99379.78;7308299;19;129550;-35
2023/10/23 07:36:22;;;;;;;;;;;;;;;22.75;51.34;99379.31;7309243;19;130028;-33
2023/10/23 07:38:48;;;;;;;85.72;4.50;;;;;;;22.63;50.86;99351.69;7310102;19;130315;-34
2023/10/23 07:41:13;;;;;;;26.73;1.77;;;;;;;22.86;51.81;99379.06;7305932;19;129395;-36
2023/10/23 07:43:39;;;;;;;65.97;4.07;;;;;;;22.79;52.33;99380.69;7306761;19;129885;-34
2023/10/23 07:46:06;;;;;;;40.57;2.50;;;;;;;22.76;52.60;99383.56;7304423;19;130928;-34
2023/10/23 07:48:32;;;;;;;86.63;4.72;;;;;;;22.73;53.37;99379.47;7305342;19;131229;-36
2023/10/23 07:50:59;;;;;;;57.83;3.47;;;;;;;22.72;53.42;99383.09;7303211;19;130202;-33
2023/10/23 07:53:24;;;;;;;;;;;;;;;22.72;54.64;99385.72;7308555;19;129533;-34
2023/10/23 07:55:50;;;;;;;94.90;5.18;;;;;;;22.70;54.40;99386.81;7306479;19;130069;-35
2023/10/23 07:58:15;;;;;;;76.83;4.03;;;;;;;22.70;54.14;99389.44;7307189;19;129508;-36
2023/10/23 08:00:41;;;;;;;33.37;2.00;;;;;;;22.67;54.47;99384.50;7307205;19;129752;-31
2023/10/23 08:03:06;;;;;;;76.90;4.47;;;;;;;22.67;54.32;99381.88;7306338;19;129635;-34
2023/10/23 08:05:32;;;;;;;56.93;3.20;;;;;;;;;;7304633;19;131677;-36
2023/10/23 08:07:57;;;;;;;87.88;4.75;;;;;;;22.63;54.51;99385.78;7307831;19;132777;-33
2023/10/23 08:10:22;;;;;;;43.47;2.67;;;;;;;22.61;54.77;99383.31;7308207;19;129311;-36
2023/10/23 08:12:48;;;;;;;45.87;2.70;;;;;;;22.61;54.85;99390.38;7306985;19;129127;-36
2023/10/23 08:15:14;;;;;;;86.35;4.47;;;;;;;22.61;54.83;99392.97;7304177;19;131319;-33
2023/10/23 08:17:40;;;;;;;45.92;2.65;;;;;;;22.50;52.35;99387.91;7308253;19;131041;-35
2023/10/23 08:20:06;;;;;;;27.92;1.73;;;;;;;22.58;52.53;99374.91;7307761;19;128962;-35
2023/10/23 08:22:32;;;;;;;;;;;;;;;22.65;51.09;99383.81;7306315;19;129465;-35
2023/10/23 08:24:57;;;;;;;78.93;3.97;;;;;;;22.73;51.31;99379.47;7306043;19;130926;-35
2023/10/23 08:27:24;;;;;;;51.83;3.17;;;;;;;22.79;51.13;99384.09;7307565;19;130294;-35
2023/10/23 08:29:50;;;;;;;58.45;3.55;;;;;;;22.83;51.56;99389.88;7304945;19;128848;-34
2023/10/23 08:32:16;;;;;;;44.60;2.93;;;;;;;22.75;52.48;99381.94;7306001;19;131174;-36
2023/10/23 08:34:41;;;;;;;78.73;4.07;;;;;;;22.72;53.22;99382.25;7315712;19;130140;-36
2023/10/23 08:37:07;;;;;;;24.23;1.57;;;;;;;22.70;53.76;99384.19;7313919;19;130028;-35
2023/10/23 08:39:32;;;;;;;28.70;1.70;;;;;;;22.66;54.05;99383.69;7313953;19;129445;-34
2023/10/23 08:41:59;;;;;;;31.75;1.98;;;;;;;22.63;54.29;99383.16;7312831;19;128972;-36
2023/10/23 08:44:25;;;;;;;79.65;4.13;;;;;;;22.62;54.43;99382.34;7315719;19;129063;-35
2023/10/23 08:46:50;;;;;;;35.73;2.40;;;;;;;22.61;54.35;99380.69;7315452;19;129665;-36
2023/10/23 08:49:16;;;;;;;56.97;3.27;;;;;;;22.61;54.35;99372.03;7314727;19;129383;-35
2023/10/23 08:51:42;;;;;;;40.45;2.22;;;;;;;22.59;54.87;99376.59;7313547;19;129124;-35
2023/10/23 08:54:17;;;;;;;67.05;3.53;;;;;;;22.61;54.49;99370.19;7315575;19;129068;-35
2023/10/23 08:56:43;;;;;;;37.58;2.35;;;;;;;22.60;54.83;99375.59;7315451;19;130441;-35
2023/10/23 08:59:10;;;;;;;45.03;3.13;;;;;;;22.61;54.43;99382.50;7315218;19;129491;-35
2023/10/23 09:01:36;;;;;;;29.23;1.85;;;;;;;22.60;54.74;99376.44;7312230;19;129403;-36
2023/10/23 09:04:02;;;;;;;69.13;3.63;;;;;;;22.45;54.79;99358.72;7314937;19;131264;-36
2023/10/23 09:06:27;;;;;;;47.42;2.70;;;;;;;22.55;52.68;99383.09;7313875;19;129174;-34
2023/10/23 09:08:53;;;;;;;29.45;1.80;;;;;;;22.60;51.71;99371.19;7312376;19;129021;-34
2023/10/23 09:11:19;;;;;;;45.30;2.67;;;;;;;22.71;51.17;99385.88;7311790;19;129393;-36
2023/10/23 09:13:44;;;;;;;93.87;4.87;;;;;;;22.75;50.96;99381.94;7315157;19;129558;-36
2023/10/23 09:16:10;;;;;;;65.78;3.97;;;;;;;22.86;51.83;99389.56;7314079;19;130367;-35
2023/10/23 09:18:51;;;;;;;42.67;2.45;;;;;;;22.75;53.47;99377.53;7312260;19;129449;-34
2023/10/23 09:21:17;;;;;;;52.90;2.97;;;;;;;22.70;53.01;99373.72;7311479;19;129249;-34
2023/10/23 09:23:54;;;;;;;67.10;3.57;;;;;;;22.68;54.28;99375.66;7311936;19;130185;-34
2023/10/23 09:26:23;;;;;;;107.38;5.82;;;;;;;22.67;54.44;99371.41;7313511;19;130348;-35
2023/10/23 09:28:49;;;;;;;55.35;3.17;;;;;;;22.50;53.98;99346.00;7311740;19;129730;-35
2023/10/23 09:31:15;;;;;;;32.03;2.00;;;;;;;22.63;53.79;99372.66;7310968;19;129254;-34
2023/10/23 09:33:40;;;;;;;34.07;2.10;;;;;;;22.63;54.03;99367.44;7313279;19;130759;-35
2023/10/23 09:36:08;;;;;;;76.67;4.00;;;;;;;22.61;54.44;99366.78;7312808;19;129262;-36
2023/10/23 09:38:34;;;;;;;32.40;2.03;;;;;;;22.59;54.98;99366.91;7313614;19;130138;-35
2023/10/23 09:41:00;;;;;;;43.72;2.65;;;;;;;22.61;54.85;99372.03;7311231;19;130429;-35
2023/10/23 09:43:26;;;;;;;92.50;5.20;;;;;;;22.61;54.83;99366.78;7307663;19;130132;-33
2023/10/23 09:45:52;;;;;;;70.80;3.90;;;;;;;22.60;54.94;99373.81;7311642;19;129274;-35
2023/10/23 09:48:20;;;;;;;37.70;2.33;;;;;;;22.59;55.11;99371.34;7312880;19;129310;-35
2023/10/23 09:50:49;;;;;;;30.25;1.75;;;;;;;22.38;52.67;99344.63;7312585;19;129337;-34
2023/10/23 09:53:16;;;;;;;39.90;2.20;;;;;;;22.60;52.01;99365.13;7313280;19;129428;-35
2023/10/23 09:55:44;;;;;;;73.65;3.80;;;;;;;22.69;51.48;99372.09;7312004;19;130527;-35
2023/10/23 09:58:16;;;;;;;34.00;2.05;;;;;;;22.75;51.34;99363.59;7314289;19;129824;-35
2023/10/23 10:00:48;;;;;;;18.23;1.17;;;;;;;22.78;51.20;99365.91;7312612;19;128895;-34
2023/10/23 10:03:20;;;;;;;31.88;1.95;;;;;;;22.70;52.22;99337.03;7313462;19;130135;-35
2023/10/23 10:05:57;;;;;;;30.05;1.73;;;;;;;22.72;52.34;99361.28;7312007;19;130503;-35
2023/10/23 10:08:24;;;;;;;74.90;3.92;;;;;;;22.65;53.04;99355.00;7310668;19;129503;-35
2023/10/23 10:10:49;;;;;;;46.83;2.65;;;;;;;22.69;53.46;99366.84;7313221;19;130193;-35
2023/10/23 10:13:16;;;;;;;29.27;1.70;;;;;;;22.67;53.59;99360.91;7313362;19;130403;-36
2023/10/23 10:15:43;;;;;;;33.35;2.00;;;;;;;22.55;54.19;99341.16;7311482;19;131283;-36
2023/10/23 10:18:10;;;;;;;57.88;2.97;;;;;;;22.64;53.72;99363.84;7312624;19;130123;-36
2023/10/23 10:20:37;;;;;;;52.65;2.85;;;;;;;22.48;54.05;99337.47;7311312;19;130346;-35
2023/10/23 10:23:15;;;;;;;30.52;1.83;;;;;;;22.56;55.03;99356.72;7313793;19;130865;-36
2023/10/23 10:25:45;;;;;;;39.45;2.28;;;;;;;22.51;54.48;99342.44;7312519;19;129659;-38
2023/10/23 10:28:12;;;;;;;71.80;4.05;;;;;;;22.60;54.64;99349.41;7310702;19;129153;-35
2023/10/23 10:30:41;;;;;;;78.63;3.83;;;;;;;22.60;54.70;99347.59;7311429;19;129807;-35
2023/10/23 10:33:29;;;;;;;50.20;2.67;;;;;;;22.60;55.79;99352.00;7312607;19;129162;-34
2023/10/23 10:36:06;;;;;;;52.17;2.78;;;;;;;22.49;53.43;99345.19;7312400;19;132431;-35
2023/10/23 10:38:34;;;;;;;58.03;3.33;;;;;;;22.54;52.13;99347.38;7312754;19;129238;-34
2023/10/23 10:41:16;;;;;;;29.83;1.95;;;;;;;22.68;51.12;99339.81;7309605;19;130485;-36
2023/10/23 10:43:43;;;;;;;45.58;2.63;;;;;;;22.70;51.11;99343.09;7311428;19;130115;-35
2023/10/23 10:46:23;;;;;;;22.80;1.52;;;;;;;22.69;52.59;99315.22;7312302;19;129122;-33
2023/10/23 10:48:50;;;;;;;64.78;3.33;;;;;;;22.74;52.42;99338.38;7308307;19;129174;-35
2023/10/23 10:51:19;;;;;;;43.60;2.33;;;;;;;22.65;53.45;99326.19;7311449;19;129196;-36
2023/10/23 10:53:54;;;;;;;9.20;0.88;;;;;;;22.62;53.83;99313.38;7310760;19;131215;-36
2023/10/23 10:56:19;;;;;;;34.22;2.00;;;;;;;22.63;53.54;99320.25;7311089;19;129854;-36
2023/10/23 10:58:45;;;;;;;30.37;1.90;;;;;;;22.64;53.96;99311.44;7310659;19;129520;-35
2023/10/23 11:01:11;;;;;;;59.13;3.25;;;;;;;22.62;54.60;99308.16;7309588;19;129650;-35
2023/10/23 11:03:37;;;;;;;41.90;2.50;;;;;;;22.60;54.40;99304.84;7311771;19;130499;-35
2023/10/23 11:06:05;;;;;;;33.28;1.98;;;;;;;22.60;54.88;99299.59;7311758;19;129319;-34
2023/10/23 11:08:31;;;;;;;76.97;4.20;;;;;;;22.59;54.48;99293.53;7307957;19;128925;-36
2023/10/23 11:10:57;;;;;;;62.50;3.70;;;;;;;22.59;54.36;99287.50;7308890;19;129332;-33
2023/10/23 11:13:23;;;;;;;42.72;2.88;;;;;;;22.59;54.49;99287.50;7313129;19;129380;-34
2023/10/23 11:15:54;;;;;;;36.47;2.17;;;;;;;22.57;55.72;99289.44;7311709;19;130397;-36